createdAt,value
2022-09-15T00:00:30.835Z,93032.94
2022-09-15T00:03:33.822Z,93049.84
2022-09-15T00:06:37.429Z,93066.69
2022-09-15T00:09:40.395Z,93078.97
2022-09-15T00:12:43.356Z,93089.31
2022-09-15T00:15:46.957Z,93092.47
2022-09-15T00:18:50.763Z,93099.63
2022-09-15T00:21:53.755Z,93097.66
2022-09-15T00:24:56.724Z,93106.28
2022-09-15T00:27:59.964Z,93094.59
2022-09-15T00:31:07.323Z,93105.81
2022-09-15T00:34:13.329Z,93123.56
2022-09-15T00:37:16.298Z,93137.38
2022-09-15T00:40:19.382Z,93138.09
2022-09-15T00:43:42.352Z,93140.19
2022-09-15T00:47:04.061Z,93137.66
2022-09-15T00:50:18.040Z,93139.69
2022-09-15T00:53:21.991Z,93137.16
2022-09-15T00:56:26.020Z,93129.28
2022-09-15T00:59:32.490Z,93126.56
2022-09-15T01:02:37.952Z,93121.91
2022-09-15T01:05:46.762Z,93108.06
2022-09-15T01:08:59.066Z,93090.97
2022-09-15T01:12:03.281Z,93092.34
2022-09-15T01:15:06.878Z,93087.75
2022-09-15T01:18:20.519Z,93086.38
2022-09-15T01:21:34.527Z,93083.06
2022-09-15T01:24:44.067Z,93056.78
2022-09-15T01:27:49.958Z,93050.81
2022-09-15T01:31:06.541Z,93052.53
2022-09-15T01:34:16.763Z,93043.88
2022-09-15T01:37:27.599Z,93047.19
2022-09-15T01:40:36.273Z,93037.88
2022-09-15T01:44:07.292Z,93037.56
2022-09-15T01:47:13.362Z,93046.00
2022-09-15T01:50:21.672Z,93047.13
2022-09-15T01:53:25.337Z,93038.34
2022-09-15T01:56:28.378Z,93029.50
2022-09-15T01:59:31.363Z,93025.78
2022-09-15T02:02:39.032Z,93018.88
2022-09-15T02:05:45.586Z,93019.91
2022-09-15T02:08:57.967Z,93042.84
2022-09-15T02:12:15.168Z,93044.03
2022-09-15T02:15:26.727Z,93033.97
2022-09-15T02:18:51.849Z,93035.63
2022-09-15T02:22:11.231Z,93025.94
2022-09-15T02:25:21.124Z,93014.28
2022-09-15T02:28:29.398Z,93005.94
2022-09-15T02:31:34.199Z,93018.03
2022-09-15T02:34:39.050Z,93007.06
2022-09-15T02:37:42.114Z,92998.06
2022-09-15T02:40:45.858Z,92996.16
2022-09-15T02:43:50.101Z,92994.19
2022-09-15T02:46:53.241Z,92975.34
2022-09-15T02:49:57.660Z,92975.38
2022-09-15T02:53:00.698Z,92964.53
2022-09-15T02:56:08.565Z,92959.09
2022-09-15T02:59:11.660Z,92969.75
2022-09-15T03:02:14.768Z,92970.81
2022-09-15T03:05:20.162Z,92978.34
2022-09-15T03:08:23.190Z,92970.25
2022-09-15T03:11:29.364Z,92985.56
2022-09-15T03:14:33.290Z,92982.34
2022-09-15T03:17:38.282Z,92980.00
2022-09-15T03:20:41.260Z,92982.63
2022-09-15T03:23:44.213Z,92976.03
2022-09-15T03:26:48.875Z,92976.09
2022-09-15T03:29:51.872Z,92973.50
2022-09-15T03:32:54.912Z,92970.47
2022-09-15T03:35:58.214Z,92971.81
2022-09-15T03:39:01.129Z,92981.94
2022-09-15T03:42:04.708Z,92975.41
2022-09-15T03:45:08.179Z,92977.84
2022-09-15T03:48:11.193Z,92972.19
2022-09-15T03:51:14.227Z,92959.94
2022-09-15T03:54:17.965Z,92959.28
2022-09-15T03:57:20.990Z,92964.56
2022-09-15T04:00:24.089Z,92960.03
2022-09-15T04:03:27.120Z,92952.13
2022-09-15T04:06:30.210Z,92944.88
2022-09-15T04:09:33.287Z,92937.84
2022-09-15T04:12:37.046Z,92953.31
2022-09-15T04:15:39.961Z,92972.09
2022-09-15T04:18:43.307Z,92974.31
2022-09-15T04:21:48.019Z,92972.00
2022-09-15T04:24:51.205Z,92950.41
2022-09-15T04:27:54.570Z,92948.13
2022-09-15T04:31:08.125Z,92956.25
2022-09-15T04:34:11.199Z,92945.34
2022-09-15T04:37:14.169Z,92948.25
2022-09-15T04:40:17.221Z,92930.75
2022-09-15T04:43:20.243Z,92925.47
2022-09-15T04:46:23.376Z,92921.53
2022-09-15T04:49:26.677Z,92900.44
2022-09-15T04:52:29.642Z,92907.63
2022-09-15T04:55:36.160Z,92904.34
2022-09-15T04:58:44.186Z,92893.81
2022-09-15T05:01:48.218Z,92908.53
2022-09-15T05:04:52.177Z,92914.66
2022-09-15T05:07:55.280Z,92924.78
2022-09-15T05:11:07.360Z,92946.47
2022-09-15T05:14:11.882Z,92959.03
2022-09-15T05:17:14.909Z,92959.13
2022-09-15T05:20:18.370Z,92963.13
2022-09-15T05:23:21.306Z,92960.56
2022-09-15T05:26:29.841Z,92957.28
2022-09-15T05:29:33.177Z,92949.41
2022-09-15T05:32:36.284Z,92942.19
2022-09-15T05:35:39.696Z,92951.41
2022-09-15T05:38:43.046Z,92945.47
2022-09-15T05:41:45.951Z,92951.94
2022-09-15T05:44:48.889Z,92959.00
2022-09-15T05:47:51.998Z,92954.22
2022-09-15T05:50:56.336Z,92959.44
2022-09-15T05:53:59.323Z,92946.50
2022-09-15T05:57:02.380Z,92940.03
2022-09-15T06:00:05.900Z,92973.53
2022-09-15T06:03:16.581Z,92972.19
2022-09-15T06:06:20.485Z,92952.47
2022-09-15T06:09:23.516Z,92953.00
2022-09-15T06:12:27.891Z,92942.41
2022-09-15T06:15:33.128Z,92954.94
2022-09-15T06:18:37.894Z,92961.00
2022-09-15T06:21:40.872Z,92947.28
2022-09-15T06:24:43.848Z,92948.00
2022-09-15T06:27:50.409Z,92960.44
2022-09-15T06:30:53.427Z,92959.19
2022-09-15T06:33:58.267Z,92961.84
2022-09-15T06:37:01.013Z,92960.31
2022-09-15T06:40:05.661Z,92965.03
2022-09-15T06:43:08.748Z,92956.44
2022-09-15T06:46:14.174Z,92951.03
2022-09-15T06:49:17.483Z,92956.81
2022-09-15T06:52:20.665Z,92958.16
2022-09-15T06:55:23.670Z,92955.41
2022-09-15T06:58:26.709Z,92951.97
2022-09-15T07:01:32.092Z,92955.84
2022-09-15T07:04:38.921Z,92967.63
2022-09-15T07:07:42.051Z,92963.78
2022-09-15T07:10:47.967Z,92969.16
2022-09-15T07:13:51.727Z,92957.41
2022-09-15T07:16:54.894Z,92950.91
2022-09-15T07:19:58.228Z,92950.91
2022-09-15T07:23:01.269Z,92945.47
2022-09-15T07:26:13.479Z,92944.66
2022-09-15T07:29:16.517Z,92938.53
2022-09-15T07:32:19.499Z,92946.22
2022-09-15T07:35:22.535Z,92948.00
2022-09-15T07:38:25.859Z,92948.75
2022-09-15T07:41:30.982Z,92948.13
2022-09-15T07:44:34.033Z,92940.31
2022-09-15T07:47:37.117Z,92952.28
2022-09-15T07:50:40.162Z,92944.41
2022-09-15T07:53:44.960Z,92933.06
2022-09-15T07:56:48.025Z,92938.19
2022-09-15T07:59:50.968Z,92929.50
2022-09-15T08:02:54.147Z,92929.47
2022-09-15T08:06:01.961Z,92928.00
2022-09-15T08:09:05.527Z,92926.00
2022-09-15T08:12:09.616Z,92921.97
2022-09-15T08:15:12.692Z,92927.81
2022-09-15T08:18:16.479Z,92919.78
2022-09-15T08:21:21.528Z,92918.31
2022-09-15T08:24:24.907Z,92922.28
2022-09-15T08:27:27.994Z,92927.66
2022-09-15T08:30:31.196Z,92937.16
2022-09-15T08:33:34.584Z,92931.97
2022-09-15T08:36:37.930Z,92931.22
2022-09-15T08:39:41.844Z,92943.00
2022-09-15T08:42:47.669Z,92933.16
2022-09-15T08:45:59.442Z,92936.59
2022-09-15T08:49:30.590Z,92934.81
2022-09-15T08:52:46.804Z,92933.69
2022-09-15T08:56:06.241Z,92930.72
2022-09-15T08:59:16.324Z,92932.31
2022-09-15T09:02:48.425Z,92927.19
2022-09-15T09:06:11.504Z,92935.78
2022-09-15T09:09:20.425Z,92943.03
2022-09-15T09:12:46.496Z,92939.06
2022-09-15T09:16:01.545Z,92948.97
2022-09-15T09:19:37.565Z,92943.88
2022-09-15T09:22:43.612Z,92953.97
2022-09-15T09:25:47.002Z,92956.75
2022-09-15T09:29:21.878Z,92960.69
2022-09-15T09:32:28.410Z,92959.53
2022-09-15T09:36:04.417Z,92954.38
2022-09-15T09:39:12.534Z,92951.28
2022-09-15T09:42:19.121Z,92950.00
2022-09-15T09:45:23.343Z,92945.38
2022-09-15T09:48:28.560Z,92942.66
2022-09-15T09:51:56.726Z,92952.50
2022-09-15T09:55:19.389Z,92945.94
2022-09-15T09:58:25.979Z,92945.84
2022-09-15T10:01:29.030Z,92946.56
2022-09-15T10:04:32.146Z,92941.41
2022-09-15T10:07:40.891Z,92948.75
2022-09-15T10:10:54.794Z,92954.16
2022-09-15T10:13:57.970Z,92958.25
2022-09-15T10:17:14.047Z,92972.13
2022-09-15T10:20:33.181Z,92961.06
2022-09-15T10:23:36.975Z,92962.53
2022-09-15T10:26:40.449Z,92969.16
2022-09-15T10:29:43.543Z,92973.78
2022-09-15T10:32:46.590Z,92972.47
2022-09-15T10:35:49.936Z,92977.78
2022-09-15T10:39:15.981Z,92970.56
2022-09-15T10:42:41.798Z,92968.63
2022-09-15T10:45:56.186Z,92976.56
2022-09-15T10:49:23.500Z,92983.19
2022-09-15T10:52:26.481Z,92991.72
2022-09-15T10:55:52.792Z,92996.38
2022-09-15T10:58:57.336Z,92994.44
2022-09-15T11:02:09.318Z,92984.63
2022-09-15T11:05:49.616Z,92994.50
2022-09-15T11:09:02.939Z,93003.06
2022-09-15T11:12:45.413Z,93003.75
2022-09-15T11:16:18.604Z,93009.03
2022-09-15T11:19:27.405Z,92999.84
2022-09-15T11:22:53.718Z,93005.09
2022-09-15T11:26:12.958Z,93007.75
2022-09-15T11:29:24.879Z,93014.31
2022-09-15T11:32:37.240Z,93013.63
2022-09-15T11:35:43.268Z,93010.38
2022-09-15T11:39:07.476Z,93009.66
2022-09-15T11:42:17.921Z,93015.53
2022-09-15T11:45:29.531Z,93014.22
2022-09-15T11:48:36.979Z,93010.91
2022-09-15T11:51:51.211Z,93005.66
2022-09-15T11:55:04.196Z,93008.94
2022-09-15T11:58:17.394Z,93020.13
2022-09-15T12:01:26.400Z,93022.09
2022-09-15T12:05:16.885Z,93022.75
2022-09-15T12:08:30.150Z,93028.66
2022-09-15T12:11:37.653Z,93030.66
2022-09-15T12:14:47.179Z,93031.34
2022-09-15T12:17:56.491Z,93021.44
2022-09-15T12:21:05.827Z,93028.66
2022-09-15T12:24:18.876Z,93033.31
2022-09-15T12:27:22.828Z,93028.09
2022-09-15T12:30:43.351Z,93030.72
2022-09-15T12:33:54.787Z,93032.09
2022-09-15T12:37:14.850Z,93037.31
2022-09-15T12:40:37.795Z,93032.75
2022-09-15T12:43:41.257Z,93038.06
2022-09-15T12:46:52.509Z,93036.78
2022-09-15T12:50:01.733Z,93030.22
2022-09-15T12:53:15.258Z,93026.97
2022-09-15T12:56:32.629Z,93032.19
2022-09-15T12:59:35.760Z,93023.03
2022-09-15T13:02:48.552Z,93019.09
2022-09-15T13:05:55.009Z,93021.72
2022-09-15T13:09:06.917Z,93019.16
2022-09-15T13:12:12.840Z,93021.78
2022-09-15T13:15:18.482Z,93025.13
2022-09-15T13:18:22.924Z,93022.53
2022-09-15T13:21:26.280Z,93023.84
2022-09-15T13:24:45.067Z,93027.81
2022-09-15T13:27:51.030Z,93033.06
2022-09-15T13:31:30.368Z,93035.00
2022-09-15T13:35:21.154Z,93029.13
2022-09-15T13:38:41.847Z,93038.34
2022-09-15T13:42:14.399Z,93028.50
2022-09-15T13:45:32.831Z,93029.22
2022-09-15T13:48:44.944Z,93041.75
2022-09-15T13:52:00.386Z,93031.25
2022-09-15T13:55:15.079Z,93016.81
2022-09-15T14:01:46.746Z,93018.22
2022-09-15T14:04:52.519Z,93024.13
2022-09-15T14:08:06.239Z,93018.28
2022-09-15T14:11:15.824Z,93021.53
2022-09-15T14:14:38.552Z,93013.69
2022-09-15T14:17:46.480Z,93012.38
2022-09-15T14:29:32.501Z,93020.34
2022-09-15T14:42:45.859Z,93029.59
2022-09-15T14:50:57.875Z,93042.72
2022-09-15T14:58:54.769Z,93038.06
2022-09-15T15:07:39.332Z,93032.13
2022-09-15T15:11:09.075Z,93030.22
2022-09-15T15:14:14.147Z,93027.63
2022-09-15T15:17:45.362Z,93036.16
2022-09-15T15:20:50.647Z,93034.84
2022-09-15T15:23:54.806Z,93038.13
2022-09-15T15:26:58.142Z,93027.59
2022-09-15T15:30:30.178Z,93032.19
2022-09-15T15:33:33.535Z,93037.41
2022-09-15T15:36:37.143Z,93042.00
2022-09-15T15:39:40.214Z,93040.03
2022-09-15T15:43:26.851Z,93040.63
2022-09-15T15:46:51.158Z,93034.06
2022-09-15T15:50:14.530Z,93034.69
2022-09-15T15:53:17.771Z,93037.34
2022-09-15T15:56:26.139Z,93034.72
2022-09-15T15:59:29.366Z,93036.66
2022-09-15T16:02:32.346Z,93041.25
2022-09-15T16:05:35.439Z,93041.22
2022-09-15T16:08:42.646Z,93041.88
2022-09-15T16:11:46.358Z,93043.22
2022-09-15T16:14:49.376Z,93038.00
2022-09-15T16:17:52.387Z,93036.69
2022-09-15T16:20:55.330Z,93030.81
2022-09-15T16:23:58.403Z,93040.63
2022-09-15T16:27:01.538Z,93044.56
2022-09-15T16:30:08.853Z,93043.25
2022-09-15T16:33:16.632Z,93051.72
2022-09-15T16:36:19.875Z,93050.44
2022-09-15T16:39:22.974Z,93053.69
2022-09-15T16:42:26.100Z,93048.47
2022-09-15T16:45:40.559Z,93043.25
2022-09-15T16:48:44.950Z,93037.31
2022-09-15T16:51:48.013Z,93035.38
2022-09-15T16:54:51.329Z,93028.16
2022-09-15T16:57:55.100Z,93026.78
2022-09-15T17:00:58.444Z,93026.81
2022-09-15T17:04:02.693Z,93020.25
2022-09-15T17:07:05.733Z,93007.81
2022-09-15T17:10:09.219Z,92997.28
2022-09-15T17:13:26.409Z,92990.09
2022-09-15T17:16:33.099Z,92993.44
2022-09-15T17:19:36.071Z,92995.44
2022-09-15T17:22:39.342Z,92998.09
2022-09-15T17:25:44.831Z,93000.75
2022-09-15T17:28:48.292Z,93007.91
2022-09-15T17:31:51.418Z,93004.63
2022-09-15T17:34:54.463Z,92992.78
2022-09-15T17:37:57.529Z,92991.47
2022-09-15T17:41:00.799Z,92992.78
2022-09-15T17:44:04.051Z,92987.53
2022-09-15T17:47:07.334Z,92988.13
2022-09-15T17:50:11.539Z,92986.84
2022-09-15T17:53:23.392Z,92988.13
2022-09-15T17:56:26.430Z,92996.72
2022-09-15T17:59:29.876Z,92996.72
2022-09-15T18:02:33.186Z,92980.31
2022-09-15T18:05:37.495Z,92970.47
2022-09-15T18:08:40.687Z,92959.34
2022-09-15T18:11:43.915Z,92954.09
2022-09-15T18:14:47.086Z,92939.06
2022-09-15T18:17:52.432Z,92930.59
2022-09-15T18:20:58.367Z,92925.41
2022-09-15T18:24:01.508Z,92932.66
2022-09-15T18:27:04.547Z,92933.94
2022-09-15T18:30:08.414Z,92930.03
2022-09-15T18:33:23.509Z,92928.66
2022-09-15T18:36:26.468Z,92912.88
2022-09-15T18:39:30.116Z,92920.78
2022-09-15T18:42:33.151Z,92915.56
2022-09-15T18:45:36.253Z,92921.50
2022-09-15T18:48:39.347Z,92926.75
2022-09-15T18:51:57.553Z,92922.78
2022-09-15T18:55:00.646Z,92922.75
2022-09-15T18:58:03.795Z,92916.84
2022-09-15T19:01:07.222Z,92918.78
2022-09-15T19:04:10.431Z,92910.34
2022-09-15T19:07:13.630Z,92913.66
2022-09-15T19:10:20.017Z,92930.72
2022-09-15T19:13:23.011Z,92922.88
2022-09-15T19:16:46.780Z,92922.25
2022-09-15T19:19:49.406Z,92930.13
2022-09-15T19:22:52.425Z,92933.31
2022-09-15T19:25:55.441Z,92936.00
2022-09-15T19:28:58.984Z,92943.28
2022-09-15T19:32:04.328Z,92945.91
2022-09-15T19:35:08.584Z,92950.47
2022-09-15T19:38:11.587Z,92955.06
2022-09-15T19:41:16.967Z,92958.34
2022-09-15T19:44:20.081Z,92962.94
2022-09-15T19:47:23.193Z,92964.31
2022-09-15T19:50:26.195Z,92954.47
2022-09-15T19:53:29.224Z,92956.44
2022-09-15T19:56:32.832Z,92959.06
2022-09-15T19:59:36.058Z,92960.38
2022-09-15T20:02:39.838Z,92950.56
2022-09-15T20:05:42.955Z,92959.72
2022-09-15T20:08:47.740Z,92955.78
2022-09-15T20:11:50.747Z,92952.47
2022-09-15T20:14:53.820Z,92951.78
2022-09-15T20:17:57.166Z,92949.19
2022-09-15T20:21:03.425Z,92948.59
2022-09-15T20:24:07.071Z,92950.59
2022-09-15T20:27:10.095Z,92936.19
2022-09-15T20:30:13.113Z,92939.53
2022-09-15T20:33:16.132Z,92929.03
2022-09-15T20:36:25.150Z,92925.09
2022-09-15T20:39:28.099Z,92916.63
2022-09-15T20:42:31.119Z,92914.03
2022-09-15T20:45:37.232Z,92906.22
2022-09-15T20:48:40.922Z,92911.47
2022-09-15T20:51:44.092Z,92908.84
2022-09-15T20:54:47.129Z,92906.88
2022-09-15T20:57:52.910Z,92923.91
2022-09-15T21:01:15.605Z,92917.28
2022-09-15T21:04:21.261Z,92915.31
2022-09-15T21:07:24.340Z,92917.25
2022-09-15T21:10:27.641Z,92914.63
2022-09-15T21:13:32.642Z,92917.19
2022-09-15T21:17:09.657Z,92915.25
2022-09-15T21:24:46.694Z,92905.50
2022-09-15T21:28:19.458Z,92912.09
2022-09-15T21:31:51.763Z,92916.03
2022-09-15T21:35:28.565Z,92914.72
2022-09-15T21:42:27.239Z,92909.53
2022-09-15T21:46:10.151Z,92909.53
2022-09-15T21:53:11.676Z,92900.38
2022-09-15T21:56:33.645Z,92895.84
2022-09-15T21:59:48.153Z,92893.91
2022-09-15T22:03:24.333Z,92901.13
2022-09-15T22:10:14.934Z,92883.38
2022-09-15T22:13:49.088Z,92883.41
2022-09-15T22:17:03.235Z,92877.47
2022-09-15T22:20:53.479Z,92872.88
2022-09-15T22:24:16.788Z,92861.75
2022-09-15T22:28:18.915Z,92851.94
2022-09-15T22:39:57.176Z,92860.38
2022-09-15T22:43:07.334Z,92857.19
2022-09-15T22:46:11.483Z,92853.31
2022-09-15T22:49:14.470Z,92830.41
2022-09-15T22:52:17.546Z,92821.84
2022-09-15T22:55:20.518Z,92829.06
2022-09-15T22:58:23.749Z,92832.31
2022-09-15T23:01:30.594Z,92828.38
2022-09-15T23:04:33.581Z,92821.84
2022-09-15T23:07:36.576Z,92824.41
2022-09-15T23:10:39.515Z,92834.22
2022-09-15T23:13:42.786Z,92840.16
2022-09-15T23:16:46.002Z,92834.22
2022-09-15T23:19:49.169Z,92830.88
2022-09-15T23:22:53.654Z,92838.69
2022-09-15T23:25:57.194Z,92845.94
2022-09-15T23:29:00.166Z,92850.53
2022-09-15T23:32:03.382Z,92854.47
2022-09-15T23:35:06.747Z,92862.91
2022-09-15T23:38:09.744Z,92864.81
2022-09-15T23:41:14.034Z,92850.31
2022-09-15T23:44:17.016Z,92848.28
2022-09-15T23:47:20.039Z,92833.19
2022-09-15T23:50:23.364Z,92834.47
2022-09-15T23:53:26.455Z,92825.28
2022-09-15T23:56:30.249Z,92806.94
2022-09-15T23:59:33.156Z,92806.94
